Lawton, Oklahoma
Current Conditions -  °F | °C
As of 9:58 PM on Tuesday 25 Nov 2014 (Local Time) from KFSI Reporting Station
Clear Clear  
Wind Chill:   Ceiling: Unl
Heat Index:   Visibility: 10mi
Dew Point:   Wind: 10mph
Humidity: 66%   Direction: 170°S
Pressure: 30.02"   Gusts: NA
Location:  34.61°N, 98.39°W
Report Text: KFSI 260358Z AUTO 17009KT 10SM CLR 06/00 A3002 RMK AO2 SLP168 T00571003
Loading
Personal Weather Stations






























Interactive Weather Map New forecast layout! Learn more

10-Day Weather Forecast

Advertisements
Track Severe Weather on mobile